Time;durP1;ratioP1;P1;durP2;ratioP2;P2;SDS_P1;SDS_P2;PMS_P1;PMS_P2;Temp;Humidity;BMP_temperature;BMP_pressure;BME280_temperature;BME280_humidity;BME280_pressure;Samples;Min_cycle;Max_cycle;Signal;HPM_P1;HPM_P2
2022/07/17 00:02:23;;;;;;;4.20;1.60;;;14.80;99.90;;;;;;5053665;28;20048;-52
2022/07/17 00:04:49;;;;;;;6.72;2.10;;;14.70;99.90;;;;;;5070179;28;20078;-53
2022/07/17 00:07:15;;;;;;;4.90;1.80;;;14.70;99.90;;;;;;5071461;28;20150;-50
2022/07/17 00:09:40;;;;;;;3.85;1.70;;;14.60;99.90;;;;;;5070555;28;20048;-51
2022/07/17 00:12:06;;;;;;;5.07;1.90;;;14.60;99.90;;;;;;5071392;28;20111;-53
2022/07/17 00:14:33;;;;;;;6.40;1.95;;;14.50;99.90;;;;;;5071009;28;20043;-54
2022/07/17 00:16:58;;;;;;;5.75;2.00;;;14.50;99.90;;;;;;5053226;28;20047;-55
2022/07/17 00:19:25;;;;;;;6.50;2.10;;;14.40;99.90;;;;;;5052885;28;20115;-52
2022/07/17 00:21:51;;;;;;;4.93;2.08;;;14.40;99.90;;;;;;5071001;28;20032;-52
2022/07/17 00:24:19;;;;;;;4.28;1.77;;;14.40;99.90;;;;;;5071022;28;20055;-52
2022/07/17 00:26:50;;;;;;;6.07;2.10;;;14.30;99.90;;;;;;5070947;28;20040;-53
2022/07/17 00:29:16;;;;;;;7.20;1.90;;;14.40;99.90;;;;;;5070636;28;20042;-54
2022/07/17 00:31:42;;;;;;;4.53;1.80;;;14.30;99.90;;;;;;5070871;28;20048;-52
2022/07/17 00:34:08;;;;;;;6.43;2.05;;;14.40;99.90;;;;;;5070677;28;20036;-51
2022/07/17 00:36:34;;;;;;;5.65;2.05;;;14.30;99.90;;;;;;5070302;28;20043;-53
2022/07/17 00:39:00;;;;;;;6.93;2.13;;;14.30;99.90;;;;;;5036192;28;20043;-52
2022/07/17 00:41:26;;;;;;;5.50;1.88;;;14.30;99.90;;;;;;5070548;28;20043;-54
2022/07/17 00:43:51;;;;;;;6.65;2.35;;;14.30;99.90;;;;;;5070430;28;20344;-54
2022/07/17 00:46:17;;;;;;;4.45;2.08;;;14.30;99.90;;;;;;5070894;28;20048;-55
2022/07/17 00:48:44;;;;;;;6.57;2.25;;;14.20;99.90;;;;;;5070591;28;20048;-52
2022/07/17 00:51:10;;;;;;;6.35;2.28;;;14.10;99.90;;;;;;5070798;28;20076;-50
2022/07/17 00:53:36;;;;;;;6.25;2.22;;;14.10;99.90;;;;;;5070559;28;20581;-52
2022/07/17 00:56:04;;;;;;;5.15;2.42;;;14.00;99.90;;;;;;5070719;28;20099;-52
2022/07/17 00:58:32;;;;;;;7.38;2.40;;;13.90;99.90;;;;;;5070660;28;20550;-53
2022/07/17 01:00:58;;;;;;;5.68;2.00;;;13.80;99.90;;;;;;5070299;28;20051;-52
2022/07/17 01:03:25;;;;;;;7.30;2.45;;;13.80;99.90;;;;;;5070511;28;20123;-52
2022/07/17 01:05:51;;;;;;;4.10;2.03;;;13.80;99.90;;;;;;5070712;28;20041;-52
2022/07/17 01:08:18;;;;;;;6.30;2.67;;;13.80;99.90;;;;;;5070307;28;20044;-53
2022/07/17 01:10:44;;;;;;;8.98;2.85;;;13.70;99.90;;;;;;5070525;28;20072;-55
2022/07/17 01:13:10;;;;;;;7.18;2.97;;;13.60;99.90;;;;;;5070626;28;20044;-53
2022/07/17 01:15:38;;;;;;;7.60;3.15;;;13.60;99.90;;;;;;5070107;28;20115;-53
2022/07/17 01:18:08;;;;;;;7.15;3.08;;;13.50;99.90;;;;;;5070246;28;20036;-54
2022/07/17 01:20:36;;;;;;;9.68;2.85;;;13.50;99.90;;;;;;5052353;28;20040;-53
2022/07/17 01:23:02;;;;;;;5.07;2.58;;;13.50;99.90;;;;;;5052589;28;20036;-51
2022/07/17 01:25:28;;;;;;;4.97;2.40;;;13.40;99.90;;;;;;5052124;28;20070;-54
2022/07/17 01:27:54;;;;;;;6.40;2.53;;;13.40;99.90;;;;;;5070356;28;20033;-52
2022/07/17 01:30:19;;;;;;;4.75;1.92;;;13.40;99.90;;;;;;5070537;28;20439;-52
2022/07/17 01:32:45;;;;;;;7.32;2.45;;;13.30;99.90;;;;;;5070073;28;20047;-53
2022/07/17 01:35:12;;;;;;;7.88;2.42;;;13.30;99.90;;;;;;5070097;28;20035;-55
2022/07/17 01:37:42;;;;;;;7.05;2.72;;;13.20;99.90;;;;;;5070340;28;20044;-52
2022/07/17 01:40:10;;;;;;;5.28;2.33;;;13.20;99.90;;;;;;5071419;28;20091;-53
2022/07/17 01:42:35;;;;;;;6.93;2.50;;;13.20;99.90;;;;;;5073988;28;20028;-51
2022/07/17 01:45:02;;;;;;;5.18;2.30;;;13.10;99.90;;;;;;5074186;28;20042;-53
2022/07/17 01:47:28;;;;;;;4.90;2.25;;;13.10;99.90;;;;;;5073788;28;20032;-54
2022/07/17 01:49:56;;;;;;;5.65;2.38;;;13.10;99.90;;;;;;5074165;28;20062;-52
2022/07/17 01:52:23;;;;;;;5.38;2.72;;;13.10;99.90;;;;;;5073715;28;20451;-51
2022/07/17 01:54:49;;;;;;;6.40;2.70;;;13.10;99.90;;;;;;5073538;28;20044;-52
2022/07/17 01:57:15;;;;;;;5.95;2.50;;;13.00;99.90;;;;;;5073951;28;20037;-52
2022/07/17 01:59:42;;;;;;;5.63;2.50;;;13.00;99.90;;;;;;5073583;28;20036;-55
2022/07/17 02:02:08;;;;;;;5.90;2.63;;;13.00;99.90;;;;;;5073738;28;20036;-54
2022/07/17 02:04:36;;;;;;;7.45;2.80;;;13.00;99.90;;;;;;5055900;28;20060;-53
2022/07/17 02:07:03;;;;;;;5.63;2.42;;;13.00;99.90;;;;;;5073599;28;20033;-54
2022/07/17 02:09:29;;;;;;;6.43;2.60;;;12.90;99.90;;;;;;5073261;28;20035;-51
2022/07/17 02:11:55;;;;;;;4.45;2.17;;;13.00;99.90;;;;;;5073349;28;20033;-51
2022/07/17 02:14:21;;;;;;;6.32;2.47;;;12.90;99.90;;;;;;5073556;28;20049;-53
2022/07/17 02:16:46;;;;;;;4.75;2.45;;;12.80;99.90;;;;;;5055186;28;20033;-55
2022/07/17 02:19:12;;;;;;;5.03;2.10;;;12.80;99.90;;;;;;5073324;28;20143;-54
2022/07/17 02:21:38;;;;;;;6.32;2.17;;;12.80;99.90;;;;;;5055503;28;20033;-52
2022/07/17 02:24:04;;;;;;;3.90;2.20;;;12.80;99.90;;;;;;5073403;28;20558;-51
2022/07/17 02:26:31;;;;;;;6.20;2.30;;;12.70;99.90;;;;;;5073103;28;20119;-53
2022/07/17 02:28:57;;;;;;;7.78;2.50;;;12.70;99.90;;;;;;5073310;28;20044;-51
2022/07/17 02:31:22;;;;;;;7.18;2.40;;;12.80;99.90;;;;;;5072889;28;20028;-53
2022/07/17 02:33:48;;;;;;;5.20;2.45;;;12.80;99.90;;;;;;5055379;28;20048;-53
2022/07/17 02:36:13;;;;;;;6.22;2.83;;;12.80;99.90;;;;;;5072693;28;20033;-53
2022/07/17 02:38:39;;;;;;;6.68;2.83;;;12.80;99.90;;;;;;5072771;28;20045;-54
2022/07/17 02:41:05;;;;;;;6.80;2.80;;;12.70;99.90;;;;;;5072687;28;20042;-54
2022/07/17 02:43:31;;;;;;;6.22;3.03;;;12.70;99.90;;;;;;5073023;28;20094;-55
2022/07/17 02:45:57;;;;;;;9.38;3.35;;;12.70;99.90;;;;;;5055154;28;20047;-52
2022/07/17 02:48:23;;;;;;;6.38;2.80;;;12.60;99.90;;;;;;5073028;28;20033;-52
2022/07/17 02:50:49;;;;;;;7.25;2.83;;;12.60;99.90;;;;;;5072261;28;20433;-53
2022/07/17 02:53:14;;;;;;;5.65;3.03;;;12.60;99.90;;;;;;5072774;28;20048;-53
2022/07/17 02:55:40;;;;;;;5.97;2.60;;;12.60;99.90;;;;;;5072809;28;20036;-52
2022/07/17 02:58:06;;;;;;;8.00;3.00;;;12.60;99.90;;;;;;5072403;28;20041;-52
2022/07/17 03:00:31;;;;;;;10.80;2.83;;;12.60;99.90;;;;;;5072532;28;20083;-52
2022/07/17 03:02:57;;;;;;;5.53;3.03;;;12.50;99.90;;;;;;5072562;28;20041;-53
2022/07/17 03:05:23;;;;;;;6.43;2.80;;;12.50;99.90;;;;;;5072579;28;20047;-55
2022/07/17 03:07:49;;;;;;;5.28;2.88;;;12.50;99.90;;;;;;5071859;28;20537;-54
2022/07/17 03:10:15;;;;;;;6.03;2.83;;;12.40;99.90;;;;;;5072503;28;20040;-54
2022/07/17 03:12:41;;;;;;;6.60;2.58;;;12.40;99.90;;;;;;5072291;28;20043;-53
2022/07/17 03:15:08;;;;;;;6.15;2.92;;;12.30;99.90;;;;;;5072560;28;20044;-52
2022/07/17 03:17:34;;;;;;;7.57;2.92;;;12.30;99.90;;;;;;5072349;28;20036;-53
2022/07/17 03:20:00;;;;;;;6.50;2.92;;;12.20;99.90;;;;;;5071997;28;20191;-54
2022/07/17 03:22:26;;;;;;;5.20;2.75;;;12.20;99.90;;;;;;5072226;28;20119;-54
2022/07/17 03:24:52;;;;;;;6.60;3.20;;;12.20;99.90;;;;;;5072497;28;20403;-51
2022/07/17 03:27:18;;;;;;;7.57;3.13;;;12.20;99.90;;;;;;5072186;28;20041;-52
2022/07/17 03:29:44;;;;;;;7.15;2.92;;;12.00;99.90;;;;;;5072187;28;20032;-54
2022/07/17 03:32:10;;;;;;;6.57;2.78;;;11.90;99.90;;;;;;5054023;28;20129;-53
2022/07/17 03:34:37;;;;;;;6.75;3.00;;;12.00;99.90;;;;;;5071929;28;20139;-55
2022/07/17 03:37:03;;;;;;;4.63;2.90;;;12.00;99.90;;;;;;5071746;28;20433;-54
2022/07/17 03:39:29;;;;;;;5.75;2.35;;;12.00;99.90;;;;;;5071321;28;20040;-53
2022/07/17 03:41:55;;;;;;;6.30;2.70;;;12.10;99.90;;;;;;5071762;28;20036;-52
2022/07/17 03:44:21;;;;;;;5.78;3.22;;;12.20;99.90;;;;;;5053694;28;20549;-53
2022/07/17 03:46:47;;;;;;;7.93;3.00;;;12.10;99.90;;;;;;5071373;28;20040;-54
2022/07/17 03:49:13;;;;;;;5.97;3.03;;;12.10;99.90;;;;;;5053942;28;20082;-51
2022/07/17 03:51:39;;;;;;;5.72;2.97;;;12.20;99.90;;;;;;5071457;28;20292;-55
2022/07/17 03:54:04;;;;;;;5.47;3.22;;;12.30;99.90;;;;;;5071675;28;20058;-53
2022/07/17 03:56:30;;;;;;;7.20;3.50;;;12.40;99.90;;;;;;5069563;28;20040;-52
2022/07/17 03:58:56;;;;;;;5.30;3.00;;;12.30;99.90;;;;;;5071113;28;20036;-50
2022/07/17 04:01:21;;;;;;;6.43;3.20;;;12.30;99.90;;;;;;5071100;28;20435;-52
2022/07/17 04:03:47;;;;;;;7.28;3.85;;;12.30;99.90;;;;;;5052472;28;20131;-53
2022/07/17 04:06:13;;;;;;;5.90;3.28;;;12.40;99.90;;;;;;5071378;28;20051;-54
2022/07/17 04:08:38;;;;;;;5.88;3.25;;;12.50;99.90;;;;;;5070885;28;20040;-51
2022/07/17 04:11:04;;;;;;;7.70;3.15;;;12.40;99.90;;;;;;5070888;28;20040;-52
2022/07/17 04:13:30;;;;;;;9.88;3.50;;;12.50;99.90;;;;;;5071268;28;20086;-53
2022/07/17 04:15:56;;;;;;;5.47;2.83;;;12.60;99.90;;;;;;5070896;28;20055;-54
2022/07/17 04:18:24;;;;;;;6.68;3.25;;;12.60;99.90;;;;;;5036453;28;20123;-53
2022/07/17 04:20:51;;;;;;;7.25;3.67;;;12.70;99.90;;;;;;5071077;28;20060;-53
2022/07/17 04:23:17;;;;;;;9.60;3.60;;;12.70;99.90;;;;;;5070920;28;20115;-54
2022/07/17 04:25:43;;;;;;;7.82;3.92;;;12.80;99.90;;;;;;5071061;28;20514;-51
2022/07/17 04:28:09;;;;;;;7.53;3.72;;;12.80;99.90;;;;;;5071260;28;20155;-52
2022/07/17 04:30:35;;;;;;;5.95;3.03;;;12.80;99.90;;;;;;5071240;28;20185;-52
2022/07/17 04:33:01;;;;;;;7.55;3.10;;;12.80;99.90;;;;;;5070966;28;20119;-55
2022/07/17 04:35:27;;;;;;;7.18;3.53;;;12.80;99.90;;;;;;5070829;28;20421;-53
2022/07/17 04:37:52;;;;;;;5.70;2.95;;;12.90;99.90;;;;;;5070652;28;20107;-55
2022/07/17 04:40:18;;;;;;;6.68;3.63;;;13.00;99.90;;;;;;5070626;28;20032;-52
2022/07/17 04:42:44;;;;;;;7.95;3.65;;;13.00;99.90;;;;;;5052970;28;20044;-53
2022/07/17 04:45:09;;;;;;;6.75;3.22;;;13.10;99.90;;;;;;5052920;28;20066;-54
2022/07/17 04:47:36;;;;;;;7.28;3.47;;;13.00;99.90;;;;;;5071045;28;20068;-53
2022/07/17 04:50:02;;;;;;;8.05;3.33;;;13.10;99.90;;;;;;5070937;28;20033;-53
2022/07/17 04:52:28;;;;;;;6.68;3.95;;;13.10;99.90;;;;;;5070758;28;20378;-53
2022/07/17 04:54:53;;;;;;;8.80;3.50;;;13.20;99.90;;;;;;5070736;28;20040;-53
2022/07/17 04:57:19;;;;;;;8.73;3.60;;;13.20;99.90;;;;;;5070420;28;20071;-54
2022/07/17 04:59:45;;;;;;;6.93;3.20;;;13.20;99.90;;;;;;5070797;28;20037;-54
2022/07/17 05:02:10;;;;;;;5.63;3.20;;;13.10;99.90;;;;;;5070759;28;20045;-53
2022/07/17 05:04:36;;;;;;;7.53;3.30;;;13.10;99.90;;;;;;5070478;28;20491;-52
2022/07/17 05:07:02;;;;;;;6.93;3.15;;;13.20;99.90;;;;;;5070611;28;20036;-53
2022/07/17 05:09:28;;;;;;;8.00;2.30;;;13.30;99.90;;;;;;5069927;28;20051;-54
2022/07/17 05:11:53;;;;;;;7.85;2.63;;;13.20;99.90;;;;;;5052373;28;20039;-52
2022/07/17 05:14:19;;;;;;;7.43;2.53;;;13.30;99.90;;;;;;5072335;28;20028;-53
2022/07/17 05:16:45;;;;;;;9.80;3.08;;;13.40;99.90;;;;;;5056606;28;20074;-54
2022/07/17 05:19:10;;;;;;;5.50;2.28;;;13.30;99.90;;;;;;5074372;28;20147;-53
2022/07/17 05:21:36;;;;;;;5.85;2.75;;;13.30;99.90;;;;;;5074679;28;20036;-54
2022/07/17 05:24:02;;;;;;;7.25;2.70;;;13.30;99.90;;;;;;5056176;28;20045;-55
2022/07/17 05:26:27;;;;;;;5.82;2.65;;;13.30;99.90;;;;;;5074424;28;20032;-53
2022/07/17 05:28:53;;;;;;;5.65;2.30;;;13.40;99.90;;;;;;5074513;28;20043;-54
2022/07/17 05:31:19;;;;;;;5.05;2.15;;;13.40;99.90;;;;;;5074566;28;20068;-53
2022/07/17 05:33:44;;;;;;;5.55;2.20;;;13.50;99.90;;;;;;5074419;28;20166;-54
2022/07/17 05:36:10;;;;;;;7.53;2.35;;;13.50;99.90;;;;;;5074526;28;20384;-53
2022/07/17 05:38:37;;;;;;;7.47;2.50;;;13.60;99.90;;;;;;5073858;28;20503;-52
2022/07/17 05:41:03;;;;;;;9.20;2.80;;;13.60;99.90;;;;;;5073924;28;20117;-54
2022/07/17 05:43:28;;;;;;;5.57;2.42;;;13.70;99.90;;;;;;5073764;28;20051;-53
2022/07/17 05:45:55;;;;;;;5.63;2.55;;;13.70;99.90;;;;;;5073708;28;20036;-51
2022/07/17 05:48:21;;;;;;;5.85;2.30;;;13.80;99.90;;;;;;5074008;28;20468;-54
2022/07/17 05:50:47;;;;;;;7.32;2.70;;;13.70;99.90;;;;;;5073967;28;20039;-54
2022/07/17 05:53:14;;;;;;;7.60;2.67;;;13.70;99.90;;;;;;5073825;28;20098;-54
2022/07/17 05:55:39;;;;;;;8.48;2.85;;;13.70;99.90;;;;;;5073869;28;20343;-53
2022/07/17 05:58:05;;;;;;;5.07;2.72;;;13.70;99.90;;;;;;5073461;28;20046;-54
2022/07/17 06:00:31;;;;;;;6.85;2.75;;;13.70;99.90;;;;;;5073415;28;20059;-52
2022/07/17 06:02:57;;;;;;;7.05;2.67;;;13.80;99.90;;;;;;5073826;28;20067;-50
2022/07/17 06:05:23;;;;;;;5.82;2.90;;;13.70;99.90;;;;;;5073719;28;20032;-53
2022/07/17 06:07:48;;;;;;;5.55;2.25;;;13.70;99.90;;;;;;5073531;28;20068;-53
2022/07/17 06:10:14;;;;;;;7.60;3.00;;;13.70;99.90;;;;;;5055271;28;20084;-49
2022/07/17 06:12:40;;;;;;;6.15;2.90;;;13.70;99.90;;;;;;5073356;28;20131;-52
2022/07/17 06:15:06;;;;;;;6.57;3.05;;;13.80;99.90;;;;;;5073669;28;20063;-52
2022/07/17 06:17:31;;;;;;;5.68;2.83;;;13.80;99.90;;;;;;5073185;28;20037;-55
2022/07/17 06:19:57;;;;;;;7.05;2.60;;;13.80;99.90;;;;;;5038932;28;20545;-52
2022/07/17 06:22:23;;;;;;;7.15;2.30;;;13.90;99.90;;;;;;5073457;28;20033;-54
2022/07/17 06:24:49;;;;;;;4.15;2.20;;;14.00;99.90;;;;;;5073560;28;20102;-53
2022/07/17 06:27:14;;;;;;;4.50;1.80;;;14.10;99.90;;;;;;5072485;28;20395;-54
2022/07/17 06:29:40;;;;;;;6.43;2.60;;;14.10;99.90;;;;;;5072908;28;20044;-53
2022/07/17 06:32:06;;;;;;;8.23;2.25;;;14.10;99.90;;;;;;5072869;28;20063;-51
2022/07/17 06:34:31;;;;;;;7.95;2.63;;;14.20;99.90;;;;;;5071798;28;20074;-52
2022/07/17 06:36:57;;;;;;;8.43;2.08;;;14.30;99.90;;;;;;5055142;28;20043;-52
2022/07/17 06:39:23;;;;;;;6.22;2.25;;;14.40;99.90;;;;;;5072568;28;20033;-53
2022/07/17 06:41:49;;;;;;;8.00;2.03;;;14.60;99.90;;;;;;5072849;28;20055;-54
2022/07/17 06:44:15;;;;;;;9.50;1.83;;;14.70;99.90;;;;;;5072933;28;20038;-53
2022/07/17 06:46:40;;;;;;;9.25;2.35;;;14.80;99.90;;;;;;5073001;28;20052;-52
2022/07/17 06:49:06;;;;;;;7.55;1.80;;;14.80;99.90;;;;;;5073045;28;20038;-54
2022/07/17 06:51:32;;;;;;;9.02;1.67;;;14.80;99.90;;;;;;5072854;28;20036;-53
2022/07/17 06:53:57;;;;;;;6.43;1.45;;;14.90;99.90;;;;;;5072408;28;20040;-55
2022/07/17 06:56:23;;;;;;;4.78;1.50;;;14.90;99.90;;;;;;5072833;28;20036;-54
2022/07/17 06:58:49;;;;;;;8.77;2.28;;;15.00;99.90;;;;;;5072777;28;20043;-54
2022/07/17 07:01:14;;;;;;;7.13;2.28;;;15.00;99.90;;;;;;5054313;28;20438;-53
2022/07/17 07:03:40;;;;;;;9.15;1.73;;;15.20;99.90;;;;;;5072650;28;20048;-54
2022/07/17 07:06:07;;;;;;;8.90;1.70;;;15.20;99.90;;;;;;5072466;28;20045;-53
2022/07/17 07:08:34;;;;;;;9.00;1.73;;;15.30;99.90;;;;;;5071719;28;20131;-53
2022/07/17 07:11:01;;;;;;;6.57;1.60;;;15.30;99.90;;;;;;5072163;28;20044;-49
2022/07/17 07:13:26;;;;;;;5.03;1.40;;;15.30;99.90;;;;;;5072469;28;21349;-53
2022/07/17 07:15:52;;;;;;;9.55;1.60;;;15.50;99.90;;;;;;5072149;28;20036;-52
2022/07/17 07:18:18;;;;;;;6.75;1.70;;;15.50;99.90;;;;;;5054393;28;20036;-54
2022/07/17 07:20:44;;;;;;;6.72;1.30;;;15.50;99.90;;;;;;5072427;28;20529;-52
2022/07/17 07:23:09;;;;;;;5.22;1.10;;;15.60;99.90;;;;;;5053936;28;20032;-52
2022/07/17 07:25:35;;;;;;;5.80;1.08;;;15.60;99.90;;;;;;5053995;28;20045;-50
2022/07/17 07:28:02;;;;;;;5.07;1.58;;;15.70;99.90;;;;;;5072071;28;20103;-52
2022/07/17 07:30:28;;;;;;;5.85;1.35;;;15.80;99.90;;;;;;5069683;28;20067;-52
2022/07/17 07:32:54;;;;;;;5.03;1.55;;;15.80;99.90;;;;;;5071775;28;20042;-51
2022/07/17 07:35:20;;;;;;;9.88;1.92;;;15.90;99.90;;;;;;5068440;28;20093;-53
2022/07/17 07:37:46;;;;;;;4.72;1.30;;;15.90;99.90;;;;;;5069866;28;20129;-53
2022/07/17 07:40:12;;;;;;;5.05;1.48;;;16.00;99.90;;;;;;5071615;28;20178;-51
2022/07/17 07:42:38;;;;;;;5.97;1.50;;;16.10;99.90;;;;;;5049817;28;20123;-53
2022/07/17 07:45:05;;;;;;;4.80;1.27;;;16.00;99.90;;;;;;5052072;28;20079;-52
2022/07/17 07:47:31;;;;;;;5.75;1.27;;;16.10;99.90;;;;;;5069745;28;20044;-54
2022/07/17 07:49:56;;;;;;;5.70;1.17;;;16.20;99.90;;;;;;5070351;28;20086;-53
2022/07/17 07:52:23;;;;;;;4.85;1.40;;;16.20;99.90;;;;;;5069941;28;20040;-54
2022/07/17 07:54:49;;;;;;;9.00;1.60;;;16.20;99.90;;;;;;5068868;28;20074;-54
2022/07/17 07:57:14;;;;;;;5.30;1.65;;;16.20;99.90;;;;;;5070008;28;20450;-53
2022/07/17 07:59:47;;;;;;;4.78;1.42;;;16.20;99.90;;;;;;5085199;27;20854;-54
2022/07/17 08:02:12;;;;;;;6.35;1.55;;;16.10;99.90;;;;;;5085283;28;20165;-53
2022/07/17 08:04:38;;;;;;;4.00;1.33;;;16.30;99.90;;;;;;5086614;28;20036;-52
2022/07/17 08:07:03;;;;;;;6.95;1.60;;;16.40;99.90;;;;;;5086616;28;20044;-52
2022/07/17 08:09:29;;;;;;;5.13;1.10;;;16.40;99.90;;;;;;5085480;28;20040;-54
2022/07/17 08:11:55;;;;;;;4.95;1.20;;;16.60;99.90;;;;;;5086000;28;20439;-55
2022/07/17 08:14:20;;;;;;;4.80;1.10;;;16.60;99.90;;;;;;5082495;28;20044;-53
2022/07/17 08:16:46;;;;;;;7.78;1.30;;;16.60;99.90;;;;;;5082378;28;20039;-52
2022/07/17 08:19:12;;;;;;;5.78;1.10;;;16.50;99.90;;;;;;5079471;28;20143;-54
2022/07/17 08:21:37;;;;;;;5.22;1.00;;;16.60;99.90;;;;;;5080273;28;20040;-53
2022/07/17 08:24:04;;;;;;;4.85;0.90;;;16.70;99.90;;;;;;5082976;28;20082;-53
2022/07/17 08:26:29;;;;;;;5.70;1.00;;;16.70;99.90;;;;;;5079624;28;20040;-54
2022/07/17 08:28:55;;;;;;;3.38;1.05;;;16.80;99.90;;;;;;5075628;28;20051;-51
2022/07/17 08:31:21;;;;;;;7.75;1.42;;;16.80;99.90;;;;;;5083494;28;20032;-53
2022/07/17 08:33:46;;;;;;;6.13;1.00;;;16.80;99.90;;;;;;5086309;28;20052;-54
2022/07/17 08:36:12;;;;;;;5.00;1.02;;;16.90;99.90;;;;;;5086072;28;20038;-53
2022/07/17 08:38:38;;;;;;;4.45;1.10;;;17.00;99.90;;;;;;5085743;28;20048;-53
2022/07/17 08:41:04;;;;;;;4.93;1.00;;;17.10;99.90;;;;;;5085613;28;20115;-55
2022/07/17 08:43:30;;;;;;;5.20;1.13;;;17.20;99.90;;;;;;5075380;28;20048;-53
2022/07/17 08:45:57;;;;;;;5.95;1.10;;;17.20;99.90;;;;;;5064992;28;20127;-51
2022/07/17 08:48:27;;;;;;;6.70;1.20;;;17.30;99.90;;;;;;5074325;28;20043;-52
2022/07/17 08:50:55;;;;;;;5.05;0.93;;;17.40;99.90;;;;;;5078094;28;20040;-54
2022/07/17 08:53:21;;;;;;;5.43;0.98;;;17.50;99.90;;;;;;5077833;28;20449;-55
2022/07/17 08:55:47;;;;;;;6.30;1.30;;;17.60;99.90;;;;;;5076570;28;20043;-52
2022/07/17 08:58:16;;;;;;;3.70;1.00;;;17.80;99.90;;;;;;5078450;28;20056;-54
2022/07/17 09:00:43;;;;;;;3.72;0.93;;;18.00;99.90;;;;;;5077836;28;20055;-51
2022/07/17 09:03:09;;;;;;;3.40;0.88;;;18.00;99.90;;;;;;5075695;28;20032;-55
2022/07/17 09:05:36;;;;;;;5.82;1.17;;;18.20;99.90;;;;;;5077876;28;20043;-53
2022/07/17 09:08:06;;;;;;;2.88;0.77;;;18.20;99.90;;;;;;5077413;28;20082;-52
2022/07/17 09:10:31;;;;;;;4.38;1.05;;;18.30;99.90;;;;;;5065175;28;20053;-53
2022/07/17 09:12:58;;;;;;;5.93;1.10;;;18.40;99.90;;;;;;5061394;28;20035;-54
2022/07/17 09:15:24;;;;;;;9.75;1.27;;;18.40;99.90;;;;;;5063792;28;20547;-52
2022/07/17 09:17:52;;;;;;;6.05;1.05;;;18.60;99.90;;;;;;5059562;28;20052;-54
2022/07/17 09:20:19;;;;;;;3.47;0.77;;;18.80;99.90;;;;;;5058366;28;20061;-52
2022/07/17 09:22:55;;;;;;;4.50;1.10;;;19.00;99.90;;;;;;5057533;28;20037;-54
2022/07/17 09:25:38;;;;;;;4.13;0.80;;;19.00;99.90;;;;;;5054949;28;20472;-57
2022/07/17 09:28:05;;;;;;;6.50;1.02;;;19.20;99.90;;;;;;5061210;28;20067;-53
2022/07/17 09:30:32;;;;;;;3.70;0.80;;;19.30;99.90;;;;;;5060368;28;20771;-55
2022/07/17 09:32:58;;;;;;;4.03;0.93;;;19.60;99.90;;;;;;5057406;28;22678;-54
2022/07/17 09:35:24;;;;;;;2.60;0.80;;;19.60;99.90;;;;;;5053722;28;20033;-51
2022/07/17 09:37:54;;;;;;;3.88;0.77;;;19.80;99.90;;;;;;5055096;28;20044;-51
2022/07/17 09:43:07;;;;;;;5.80;1.20;;;19.90;99.90;;;;;;5063938;28;20041;-52
2022/07/17 09:45:33;;;;;;;5.95;1.00;;;20.00;99.90;;;;;;5060914;28;21400;-53
2022/07/17 09:48:01;;;;;;;6.53;1.00;;;20.00;99.90;;;;;;5061911;28;20491;-53
2022/07/17 09:50:28;;;;;;;3.03;1.02;;;20.30;99.90;;;;;;5063634;28;20033;-51
2022/07/17 09:52:56;;;;;;;4.32;0.90;;;20.30;99.90;;;;;;5064635;28;20040;-52
2022/07/17 09:55:27;;;;;;;1.83;0.63;;;20.40;99.70;;;;;;5064327;28;20046;-54
2022/07/17 09:57:55;;;;;;;3.38;0.75;;;20.40;99.90;;;;;;5062507;28;20094;-54
2022/07/17 10:00:22;;;;;;;4.45;0.98;;;20.70;99.80;;;;;;5063056;28;20037;-54
2022/07/17 10:02:48;;;;;;;4.35;0.80;;;20.50;99.90;;;;;;5064189;28;20388;-54
2022/07/17 10:05:15;;;;;;;3.88;0.82;;;20.40;99.90;;;;;;5062622;28;20033;-51
2022/07/17 10:07:45;;;;;;;5.28;0.90;;;20.60;99.70;;;;;;5061392;28;20033;-50
2022/07/17 10:10:13;;;;;;;4.03;0.95;;;20.60;99.90;;;;;;5063155;28;20406;-50
2022/07/17 10:12:42;;;;;;;3.42;0.80;;;20.80;99.90;;;;;;5061554;28;20029;-53
2022/07/17 10:15:09;;;;;;;4.40;0.82;;;20.90;99.90;;;;;;5061551;28;20029;-51
2022/07/17 10:17:35;;;;;;;3.92;0.85;;;20.60;98.40;;;;;;5061082;28;20115;-52
2022/07/17 10:20:03;;;;;;;5.47;1.00;;;20.90;99.60;;;;;;5062117;28;20132;-52
2022/07/17 10:22:44;;;;;;;7.25;1.38;;;20.80;99.20;;;;;;5059669;28;20025;-52
2022/07/17 10:25:17;;;;;;;2.60;0.70;;;21.20;99.90;;;;;;5062837;28;20039;-54
2022/07/17 10:27:56;;;;;;;4.20;0.90;;;21.20;99.60;;;;;;5059994;28;20123;-53
2022/07/17 10:30:28;;;;;;;4.78;1.05;;;21.30;99.70;;;;;;5054252;28;20036;-50
2022/07/17 10:33:00;;;;;;;5.05;0.93;;;21.10;98.40;;;;;;5061872;28;20020;-54
2022/07/17 10:35:28;;;;;;;3.13;0.70;;;21.40;99.40;;;;;;5063337;28;20054;-53
2022/07/17 10:37:58;;;;;;;4.82;1.05;;;21.50;99.30;;;;;;5063327;28;20448;-53
2022/07/17 10:40:29;;;;;;;4.65;1.13;;;21.50;99.50;;;;;;5062138;28;20417;-52
2022/07/17 10:43:20;;;;;;;6.35;0.90;;;21.50;99.50;;;;;;5060940;28;20118;-53
2022/07/17 10:45:46;;;;;;;5.05;1.10;;;21.50;98.50;;;;;;5058386;28;20136;-54
2022/07/17 10:48:15;;;;;;;3.95;0.88;;;21.80;99.30;;;;;;5060350;28;20123;-54
2022/07/17 10:50:46;;;;;;;4.97;1.00;;;22.00;98.70;;;;;;5059951;28;20033;-53
2022/07/17 10:53:28;;;;;;;5.05;0.95;;;21.80;99.00;;;;;;5060727;28;20040;-54
2022/07/17 10:56:16;;;;;;;4.22;0.80;;;22.00;97.80;;;;;;5061169;28;20029;-52
2022/07/17 10:58:44;;;;;;;4.40;1.15;;;21.90;98.10;;;;;;5060404;28;20053;-55
2022/07/17 11:01:18;;;;;;;4.53;1.08;;;22.00;98.70;;;;;;5059195;28;20032;-53
2022/07/17 11:03:47;;;;;;;3.13;0.90;;;22.00;98.80;;;;;;5082286;28;20036;-53
2022/07/17 11:06:19;;;;;;;3.67;0.95;;;22.10;98.60;;;;;;5058163;28;20047;-55
2022/07/17 11:08:52;;;;;;;4.18;1.02;;;22.20;98.70;;;;;;5053046;28;20043;-54
2022/07/17 11:11:20;;;;;;;5.18;1.20;;;22.10;97.10;;;;;;5054999;28;20472;-54
2022/07/17 11:13:46;;;;;;;4.47;1.00;;;22.00;98.40;;;;;;5057082;28;20119;-53
2022/07/17 11:16:12;;;;;;;4.30;0.95;;;22.20;99.00;;;;;;5060741;28;20166;-56
2022/07/17 11:18:47;;;;;;;6.45;1.55;;;22.30;97.70;;;;;;5065010;28;20037;-54
2022/07/17 11:21:13;;;;;;;3.45;1.02;;;22.40;98.30;;;;;;5068583;28;20051;-53
2022/07/17 11:23:51;;;;;;;3.97;1.08;;;22.50;96.70;;;;;;5069540;28;20048;-54
2022/07/17 11:26:18;;;;;;;4.13;0.90;;;22.20;97.00;;;;;;5069800;28;20093;-54
2022/07/17 11:28:44;;;;;;;4.65;0.90;;;22.60;98.20;;;;;;5071654;28;20044;-54
2022/07/17 11:31:24;;;;;;;3.53;0.90;;;22.70;97.80;;;;;;5071324;28;20036;-53
2022/07/17 11:34:02;;;;;;;3.90;1.05;;;23.00;96.80;;;;;;5066964;28;20476;-54
2022/07/17 11:36:37;;;;;;;3.60;0.98;;;22.70;96.80;;;;;;5067712;28;20036;-54
2022/07/17 11:39:11;;;;;;;4.10;1.10;;;22.90;96.70;;;;;;5066374;28;20068;-54
2022/07/17 11:41:38;;;;;;;6.63;1.02;;;22.90;96.80;;;;;;5066781;28;20045;-55
2022/07/17 11:44:07;;;;;;;4.22;0.90;;;23.00;98.00;;;;;;5063439;28;20036;-54
2022/07/17 11:46:33;;;;;;;4.40;1.00;;;23.10;97.70;;;;;;5068225;28;20040;-55
2022/07/17 11:48:59;;;;;;;3.35;1.00;;;23.00;97.00;;;;;;5065357;28;20048;-55
2022/07/17 11:51:40;;;;;;;5.65;1.20;;;23.30;95.70;;;;;;5064447;28;20491;-55
2022/07/17 11:54:15;;;;;;;2.63;0.80;;;23.50;97.30;;;;;;5078722;28;20045;-53
2022/07/17 11:56:42;;;;;;;4.72;0.98;;;23.80;97.10;;;;;;5060831;28;20044;-52
2022/07/17 11:59:09;;;;;;;3.50;1.00;;;23.70;97.10;;;;;;5067717;28;20044;-54
2022/07/17 12:01:40;;;;;;;4.03;1.00;;;23.60;95.60;;;;;;5067254;28;20045;-54
2022/07/17 12:04:09;;;;;;;5.05;0.88;;;23.70;96.90;;;;;;5064782;28;20097;-54
2022/07/17 12:06:35;;;;;;;4.18;1.10;;;24.00;95.50;;;;;;5061339;28;20163;-54
2022/07/17 12:09:01;;;;;;;5.95;1.10;;;24.00;96.50;;;;;;5066733;28;20131;-53
2022/07/17 12:11:27;;;;;;;4.93;1.02;;;24.20;96.30;;;;;;5062764;28;20036;-51
2022/07/17 12:13:52;;;;;;;6.47;1.13;;;24.10;96.00;;;;;;5061153;28;20040;-52
2022/07/17 12:16:30;;;;;;;3.45;1.30;;;24.60;95.00;;;;;;5061458;28;20041;-53
2022/07/17 12:19:15;;;;;;;3.78;1.10;;;24.50;95.30;;;;;;5060202;28;20036;-52
2022/07/17 12:22:02;;;;;;;4.70;1.20;;;24.70;94.70;;;;;;5064502;28;20039;-53
2022/07/17 12:24:29;;;;;;;3.40;1.08;;;24.80;94.00;;;;;;5059775;28;20068;-52
2022/07/17 12:26:57;;;;;;;3.95;1.13;;;24.70;94.50;;;;;;5065657;28;20111;-52
2022/07/17 12:29:23;;;;;;;4.00;1.10;;;24.70;94.80;;;;;;5061687;28;20036;-53
2022/07/17 12:32:07;;;;;;;4.78;1.13;;;24.90;93.80;;;;;;5045477;28;20557;-53
2022/07/17 12:34:34;;;;;;;4.15;1.58;;;24.90;93.00;;;;;;5063403;28;20087;-53
2022/07/17 12:37:00;;;;;;;4.85;1.17;;;24.90;93.30;;;;;;5066760;28;20051;-52
2022/07/17 12:39:26;;;;;;;5.07;1.38;;;24.90;92.80;;;;;;5066121;28;20778;-53
2022/07/17 12:41:52;;;;;;;3.17;1.20;;;25.20;93.80;;;;;;5068164;28;20388;-52
2022/07/17 12:44:17;;;;;;;4.97;1.20;;;25.20;91.70;;;;;;5068917;28;20058;-52
2022/07/17 12:46:43;;;;;;;3.30;1.15;;;25.50;93.50;;;;;;5070880;28;20488;-50
2022/07/17 12:49:09;;;;;;;4.72;1.50;;;25.60;92.60;;;;;;5071442;28;20082;-50
2022/07/17 12:51:35;;;;;;;9.32;1.70;;;25.60;92.40;;;;;;5067707;28;20144;-53